sensor_id;sensor_type;location;lat;lon;timestamp;temperature;humidity
46932;DHT22;32670;51.464;11.964;2023-05-20T00:00:19;24.00;46.40
46932;DHT22;32670;51.464;11.964;2023-05-20T00:02:45;24.00;46.50
46932;DHT22;32670;51.464;11.964;2023-05-20T00:05:10;24.00;46.50
46932;DHT22;32670;51.464;11.964;2023-05-20T00:07:36;24.00;46.50
46932;DHT22;32670;51.464;11.964;2023-05-20T00:10:01;24.00;46.50
46932;DHT22;32670;51.464;11.964;2023-05-20T00:12:27;24.00;46.60
46932;DHT22;32670;51.464;11.964;2023-05-20T00:14:52;24.00;46.70
46932;DHT22;32670;51.464;11.964;2023-05-20T00:17:18;24.00;46.80
46932;DHT22;32670;51.464;11.964;2023-05-20T00:19:43;24.00;46.80
46932;DHT22;32670;51.464;11.964;2023-05-20T00:22:09;24.00;46.80
46932;DHT22;32670;51.464;11.964;2023-05-20T00:24:34;24.00;46.90
46932;DHT22;32670;51.464;11.964;2023-05-20T00:27:00;24.00;46.80
46932;DHT22;32670;51.464;11.964;2023-05-20T00:29:26;24.00;46.90
46932;DHT22;32670;51.464;11.964;2023-05-20T00:31:53;24.10;46.80
46932;DHT22;32670;51.464;11.964;2023-05-20T00:34:19;24.10;46.90
46932;DHT22;32670;51.464;11.964;2023-05-20T00:36:44;24.10;47.00
46932;DHT22;32670;51.464;11.964;2023-05-20T00:39:10;24.10;46.90
46932;DHT22;32670;51.464;11.964;2023-05-20T00:41:36;24.10;47.00
46932;DHT22;32670;51.464;11.964;2023-05-20T00:44:02;24.10;47.00
46932;DHT22;32670;51.464;11.964;2023-05-20T00:46:28;24.10;47.10
46932;DHT22;32670;51.464;11.964;2023-05-20T00:48:54;24.10;47.20
46932;DHT22;32670;51.464;11.964;2023-05-20T00:51:19;24.10;47.30
46932;DHT22;32670;51.464;11.964;2023-05-20T00:53:45;24.10;47.30
46932;DHT22;32670;51.464;11.964;2023-05-20T00:56:11;24.10;47.30
46932;DHT22;32670;51.464;11.964;2023-05-20T00:58:37;24.10;47.30
46932;DHT22;32670;51.464;11.964;2023-05-20T01:01:03;24.10;47.30
46932;DHT22;32670;51.464;11.964;2023-05-20T01:03:29;24.10;47.50
46932;DHT22;32670;51.464;11.964;2023-05-20T01:05:55;24.10;47.60
46932;DHT22;32670;51.464;11.964;2023-05-20T01:08:22;24.20;47.80
46932;DHT22;32670;51.464;11.964;2023-05-20T01:10:52;24.10;47.80
46932;DHT22;32670;51.464;11.964;2023-05-20T01:13:20;24.20;47.70
46932;DHT22;32670;51.464;11.964;2023-05-20T01:15:49;24.20;47.80
46932;DHT22;32670;51.464;11.964;2023-05-20T01:18:15;24.20;47.70
46932;DHT22;32670;51.464;11.964;2023-05-20T01:20:43;24.20;47.60
46932;DHT22;32670;51.464;11.964;2023-05-20T01:23:17;24.20;47.70
46932;DHT22;32670;51.464;11.964;2023-05-20T01:25:42;24.20;47.80
46932;DHT22;32670;51.464;11.964;2023-05-20T01:28:08;24.20;47.70
46932;DHT22;32670;51.464;11.964;2023-05-20T01:30:37;24.20;47.80
46932;DHT22;32670;51.464;11.964;2023-05-20T01:33:09;24.20;47.90
46932;DHT22;32670;51.464;11.964;2023-05-20T01:35:35;24.20;48.00
46932;DHT22;32670;51.464;11.964;2023-05-20T01:38:03;24.20;48.00
46932;DHT22;32670;51.464;11.964;2023-05-20T01:40:30;24.20;48.10
46932;DHT22;32670;51.464;11.964;2023-05-20T01:42:57;24.20;48.10
46932;DHT22;32670;51.464;11.964;2023-05-20T01:45:24;24.20;48.00
46932;DHT22;32670;51.464;11.964;2023-05-20T01:47:49;24.20;48.10
46932;DHT22;32670;51.464;11.964;2023-05-20T01:50:15;24.20;48.10
46932;DHT22;32670;51.464;11.964;2023-05-20T01:52:41;24.20;48.10
46932;DHT22;32670;51.464;11.964;2023-05-20T01:55:06;24.20;48.20
46932;DHT22;32670;51.464;11.964;2023-05-20T01:57:32;24.20;48.10
46932;DHT22;32670;51.464;11.964;2023-05-20T01:59:57;24.30;48.10
46932;DHT22;32670;51.464;11.964;2023-05-20T02:02:23;24.20;48.10
46932;DHT22;32670;51.464;11.964;2023-05-20T02:04:50;24.20;48.00
46932;DHT22;32670;51.464;11.964;2023-05-20T02:07:16;24.30;48.10
46932;DHT22;32670;51.464;11.964;2023-05-20T02:09:43;24.20;48.10
46932;DHT22;32670;51.464;11.964;2023-05-20T02:12:09;24.30;48.20
46932;DHT22;32670;51.464;11.964;2023-05-20T02:14:41;24.30;48.30
46932;DHT22;32670;51.464;11.964;2023-05-20T02:17:06;24.20;48.20
46932;DHT22;32670;51.464;11.964;2023-05-20T02:19:32;24.20;48.50
46932;DHT22;32670;51.464;11.964;2023-05-20T02:21:57;24.30;48.50
46932;DHT22;32670;51.464;11.964;2023-05-20T02:24:22;24.20;48.40
46932;DHT22;32670;51.464;11.964;2023-05-20T02:26:48;24.30;48.50
46932;DHT22;32670;51.464;11.964;2023-05-20T02:29:15;24.30;48.50
46932;DHT22;32670;51.464;11.964;2023-05-20T02:31:40;24.30;48.50
46932;DHT22;32670;51.464;11.964;2023-05-20T02:34:06;24.30;48.50
46932;DHT22;32670;51.464;11.964;2023-05-20T02:36:31;24.30;48.50
46932;DHT22;32670;51.464;11.964;2023-05-20T02:38:57;24.30;48.60
46932;DHT22;32670;51.464;11.964;2023-05-20T02:41:22;24.30;48.50
46932;DHT22;32670;51.464;11.964;2023-05-20T02:43:48;24.30;48.50
46932;DHT22;32670;51.464;11.964;2023-05-20T02:46:13;24.30;48.60
46932;DHT22;32670;51.464;11.964;2023-05-20T02:48:40;24.30;48.50
46932;DHT22;32670;51.464;11.964;2023-05-20T02:51:05;24.30;48.60
46932;DHT22;32670;51.464;11.964;2023-05-20T02:53:30;24.30;48.40
46932;DHT22;32670;51.464;11.964;2023-05-20T02:55:56;24.30;48.70
46932;DHT22;32670;51.464;11.964;2023-05-20T02:58:22;24.30;48.70
46932;DHT22;32670;51.464;11.964;2023-05-20T03:00:53;24.30;48.60
46932;DHT22;32670;51.464;11.964;2023-05-20T03:03:18;24.30;48.70
46932;DHT22;32670;51.464;11.964;2023-05-20T03:05:44;24.30;48.60
46932;DHT22;32670;51.464;11.964;2023-05-20T03:08:10;24.30;48.70
46932;DHT22;32670;51.464;11.964;2023-05-20T03:10:39;24.20;48.60
46932;DHT22;32670;51.464;11.964;2023-05-20T03:13:06;24.30;48.80
46932;DHT22;32670;51.464;11.964;2023-05-20T03:15:39;24.30;48.90
46932;DHT22;32670;51.464;11.964;2023-05-20T03:18:05;24.30;49.00
46932;DHT22;32670;51.464;11.964;2023-05-20T03:20:31;24.30;49.00
46932;DHT22;32670;51.464;11.964;2023-05-20T03:22:57;24.30;49.10
46932;DHT22;32670;51.464;11.964;2023-05-20T03:25:23;24.30;48.90
46932;DHT22;32670;51.464;11.964;2023-05-20T03:27:49;24.30;48.80
46932;DHT22;32670;51.464;11.964;2023-05-20T03:30:14;24.30;48.80
46932;DHT22;32670;51.464;11.964;2023-05-20T03:32:40;24.30;48.70
46932;DHT22;32670;51.464;11.964;2023-05-20T03:35:06;24.30;48.60
46932;DHT22;32670;51.464;11.964;2023-05-20T03:37:32;24.30;48.60
46932;DHT22;32670;51.464;11.964;2023-05-20T03:39:58;24.30;48.70
46932;DHT22;32670;51.464;11.964;2023-05-20T03:42:23;24.30;48.70
46932;DHT22;32670;51.464;11.964;2023-05-20T03:44:49;24.30;48.80
46932;DHT22;32670;51.464;11.964;2023-05-20T03:47:14;24.30;48.70
46932;DHT22;32670;51.464;11.964;2023-05-20T03:49:40;24.30;48.80
46932;DHT22;32670;51.464;11.964;2023-05-20T03:52:06;24.40;48.70
46932;DHT22;32670;51.464;11.964;2023-05-20T03:54:31;24.40;48.60
46932;DHT22;32670;51.464;11.964;2023-05-20T03:56:57;24.40;48.70
46932;DHT22;32670;51.464;11.964;2023-05-20T03:59:22;24.40;48.60
46932;DHT22;32670;51.464;11.964;2023-05-20T04:01:48;24.40;48.80
46932;DHT22;32670;51.464;11.964;2023-05-20T04:04:13;24.40;49.40
46932;DHT22;32670;51.464;11.964;2023-05-20T04:06:39;24.40;48.70
46932;DHT22;32670;51.464;11.964;2023-05-20T04:09:05;24.40;48.70
46932;DHT22;32670;51.464;11.964;2023-05-20T04:11:30;24.40;48.60
46932;DHT22;32670;51.464;11.964;2023-05-20T04:13:56;24.40;48.50
46932;DHT22;32670;51.464;11.964;2023-05-20T04:16:22;24.40;48.40
46932;DHT22;32670;51.464;11.964;2023-05-20T04:18:48;24.40;48.30
46932;DHT22;32670;51.464;11.964;2023-05-20T04:21:14;24.40;48.30
46932;DHT22;32670;51.464;11.964;2023-05-20T04:23:40;24.40;48.40
46932;DHT22;32670;51.464;11.964;2023-05-20T04:26:05;24.30;48.40
46932;DHT22;32670;51.464;11.964;2023-05-20T04:28:31;24.40;48.40
46932;DHT22;32670;51.464;11.964;2023-05-20T04:30:58;24.40;48.30
46932;DHT22;32670;51.464;11.964;2023-05-20T04:33:23;24.40;48.30
46932;DHT22;32670;51.464;11.964;2023-05-20T04:35:49;24.40;48.20
46932;DHT22;32670;51.464;11.964;2023-05-20T04:38:14;24.40;48.20
46932;DHT22;32670;51.464;11.964;2023-05-20T04:40:40;24.40;48.20
46932;DHT22;32670;51.464;11.964;2023-05-20T04:43:06;24.30;48.10
46932;DHT22;32670;51.464;11.964;2023-05-20T04:45:31;24.40;48.10
46932;DHT22;32670;51.464;11.964;2023-05-20T04:47:58;24.30;48.00
46932;DHT22;32670;51.464;11.964;2023-05-20T04:50:23;24.30;48.00
46932;DHT22;32670;51.464;11.964;2023-05-20T04:52:49;24.30;48.00
46932;DHT22;32670;51.464;11.964;2023-05-20T04:55:15;24.30;48.00
46932;DHT22;32670;51.464;11.964;2023-05-20T04:57:40;24.40;48.10
46932;DHT22;32670;51.464;11.964;2023-05-20T05:00:07;24.30;48.00
46932;DHT22;32670;51.464;11.964;2023-05-20T05:02:34;24.30;48.10
46932;DHT22;32670;51.464;11.964;2023-05-20T05:05:00;24.40;48.20
46932;DHT22;32670;51.464;11.964;2023-05-20T05:07:25;24.30;48.10
46932;DHT22;32670;51.464;11.964;2023-05-20T05:09:51;24.30;48.20
46932;DHT22;32670;51.464;11.964;2023-05-20T05:12:16;24.30;48.20
46932;DHT22;32670;51.464;11.964;2023-05-20T05:14:42;24.30;48.10
46932;DHT22;32670;51.464;11.964;2023-05-20T05:17:07;24.30;48.00
46932;DHT22;32670;51.464;11.964;2023-05-20T05:19:33;24.30;48.10
46932;DHT22;32670;51.464;11.964;2023-05-20T05:21:58;24.30;47.80
46932;DHT22;32670;51.464;11.964;2023-05-20T05:24:23;24.20;46.20
46932;DHT22;32670;51.464;11.964;2023-05-20T05:26:55;24.00;44.50
46932;DHT22;32670;51.464;11.964;2023-05-20T05:29:21;23.80;44.20
46932;DHT22;32670;51.464;11.964;2023-05-20T05:31:46;23.60;44.00
46932;DHT22;32670;51.464;11.964;2023-05-20T05:34:12;23.40;43.60
46932;DHT22;32670;51.464;11.964;2023-05-20T05:36:39;23.30;43.90
46932;DHT22;32670;51.464;11.964;2023-05-20T05:39:04;23.20;43.80
46932;DHT22;32670;51.464;11.964;2023-05-20T05:41:30;23.10;43.90
46932;DHT22;32670;51.464;11.964;2023-05-20T05:43:57;23.00;43.80
46932;DHT22;32670;51.464;11.964;2023-05-20T05:46:22;23.00;43.70
46932;DHT22;32670;51.464;11.964;2023-05-20T05:48:48;22.90;43.80
46932;DHT22;32670;51.464;11.964;2023-05-20T05:51:14;22.80;43.80
46932;DHT22;32670;51.464;11.964;2023-05-20T05:53:40;22.80;44.00
46932;DHT22;32670;51.464;11.964;2023-05-20T05:56:06;22.70;43.90
46932;DHT22;32670;51.464;11.964;2023-05-20T05:58:32;22.70;44.00
46932;DHT22;32670;51.464;11.964;2023-05-20T06:00:58;22.60;44.10
46932;DHT22;32670;51.464;11.964;2023-05-20T06:03:23;22.60;44.20
46932;DHT22;32670;51.464;11.964;2023-05-20T06:05:49;22.60;44.30
46932;DHT22;32670;51.464;11.964;2023-05-20T06:08:15;22.50;44.30
46932;DHT22;32670;51.464;11.964;2023-05-20T06:10:40;22.50;44.40
46932;DHT22;32670;51.464;11.964;2023-05-20T06:13:06;22.40;44.50
46932;DHT22;32670;51.464;11.964;2023-05-20T06:15:31;22.40;44.60
46932;DHT22;32670;51.464;11.964;2023-05-20T06:17:57;22.30;44.90
46932;DHT22;32670;51.464;11.964;2023-05-20T06:20:22;22.40;45.00
46932;DHT22;32670;51.464;11.964;2023-05-20T06:22:47;22.50;44.90
46932;DHT22;32670;51.464;11.964;2023-05-20T06:25:13;22.50;44.80
46932;DHT22;32670;51.464;11.964;2023-05-20T06:27:38;22.40;44.70
46932;DHT22;32670;51.464;11.964;2023-05-20T06:30:04;22.40;44.80
46932;DHT22;32670;51.464;11.964;2023-05-20T06:32:30;22.40;45.10
46932;DHT22;32670;51.464;11.964;2023-05-20T06:34:56;22.30;44.80
46932;DHT22;32670;51.464;11.964;2023-05-20T06:37:21;22.30;44.90
46932;DHT22;32670;51.464;11.964;2023-05-20T06:39:51;22.30;44.90
46932;DHT22;32670;51.464;11.964;2023-05-20T06:42:18;22.30;45.50
46932;DHT22;32670;51.464;11.964;2023-05-20T06:44:44;22.30;45.00
46932;DHT22;32670;51.464;11.964;2023-05-20T06:47:10;22.30;44.90
46932;DHT22;32670;51.464;11.964;2023-05-20T06:49:35;22.30;45.00
46932;DHT22;32670;51.464;11.964;2023-05-20T06:52:01;22.20;44.90
46932;DHT22;32670;51.464;11.964;2023-05-20T06:54:26;22.20;45.10
46932;DHT22;32670;51.464;11.964;2023-05-20T06:56:52;22.20;45.10
46932;DHT22;32670;51.464;11.964;2023-05-20T06:59:17;22.10;45.20
46932;DHT22;32670;51.464;11.964;2023-05-20T07:01:43;22.10;45.30
46932;DHT22;32670;51.464;11.964;2023-05-20T07:04:09;22.10;46.00
46932;DHT22;32670;51.464;11.964;2023-05-20T07:06:34;22.10;45.60
46932;DHT22;32670;51.464;11.964;2023-05-20T07:08:59;22.20;45.60
46932;DHT22;32670;51.464;11.964;2023-05-20T07:11:25;22.30;45.30
46932;DHT22;32670;51.464;11.964;2023-05-20T07:13:51;22.40;45.20
46932;DHT22;32670;51.464;11.964;2023-05-20T07:16:17;22.50;45.00
46932;DHT22;32670;51.464;11.964;2023-05-20T07:18:43;22.50;44.80
46932;DHT22;32670;51.464;11.964;2023-05-20T07:21:08;22.60;44.70
46932;DHT22;32670;51.464;11.964;2023-05-20T07:23:34;22.70;44.60
46932;DHT22;32670;51.464;11.964;2023-05-20T07:26:00;22.70;44.50
46932;DHT22;32670;51.464;11.964;2023-05-20T07:28:25;22.80;44.40
46932;DHT22;32670;51.464;11.964;2023-05-20T07:30:51;22.80;44.40
46932;DHT22;32670;51.464;11.964;2023-05-20T07:33:16;22.80;44.30
46932;DHT22;32670;51.464;11.964;2023-05-20T07:35:43;22.80;44.20
46932;DHT22;32670;51.464;11.964;2023-05-20T07:38:10;22.80;44.20
46932;DHT22;32670;51.464;11.964;2023-05-20T07:40:36;22.90;44.20
46932;DHT22;32670;51.464;11.964;2023-05-20T07:43:03;22.90;44.10
46932;DHT22;32670;51.464;11.964;2023-05-20T07:45:28;22.90;44.10
46932;DHT22;32670;51.464;11.964;2023-05-20T07:47:54;22.90;44.10
46932;DHT22;32670;51.464;11.964;2023-05-20T07:50:19;23.00;44.10
46932;DHT22;32670;51.464;11.964;2023-05-20T07:52:45;23.00;44.10
46932;DHT22;32670;51.464;11.964;2023-05-20T07:55:10;23.00;44.00
46932;DHT22;32670;51.464;11.964;2023-05-20T07:57:36;23.00;44.00
46932;DHT22;32670;51.464;11.964;2023-05-20T08:00:01;23.00;43.90
46932;DHT22;32670;51.464;11.964;2023-05-20T08:02:28;23.00;43.90
46932;DHT22;32670;51.464;11.964;2023-05-20T08:04:53;23.00;43.90
46932;DHT22;32670;51.464;11.964;2023-05-20T08:07:19;23.00;43.80
46932;DHT22;32670;51.464;11.964;2023-05-20T08:09:44;23.00;43.80
46932;DHT22;32670;51.464;11.964;2023-05-20T08:12:10;23.10;43.90
46932;DHT22;32670;51.464;11.964;2023-05-20T08:14:35;23.00;43.80
46932;DHT22;32670;51.464;11.964;2023-05-20T08:17:01;23.00;43.80
46932;DHT22;32670;51.464;11.964;2023-05-20T08:19:27;23.10;43.80
46932;DHT22;32670;51.464;11.964;2023-05-20T08:21:52;23.10;43.80
46932;DHT22;32670;51.464;11.964;2023-05-20T08:24:18;23.00;43.70
46932;DHT22;32670;51.464;11.964;2023-05-20T08:26:44;23.10;44.30
46932;DHT22;32670;51.464;11.964;2023-05-20T08:29:09;23.10;45.30
46932;DHT22;32670;51.464;11.964;2023-05-20T08:31:35;23.20;45.90
46932;DHT22;32670;51.464;11.964;2023-05-20T08:34:00;23.20;46.20
46932;DHT22;32670;51.464;11.964;2023-05-20T08:36:25;23.30;46.40
46932;DHT22;32670;51.464;11.964;2023-05-20T08:38:51;23.30;46.50
46932;DHT22;32670;51.464;11.964;2023-05-20T08:41:16;23.40;46.60
46932;DHT22;32670;51.464;11.964;2023-05-20T08:43:43;23.30;46.50
46932;DHT22;32670;51.464;11.964;2023-05-20T08:46:09;23.40;46.60
46932;DHT22;32670;51.464;11.964;2023-05-20T08:48:36;23.40;46.70
46932;DHT22;32670;51.464;11.964;2023-05-20T08:51:02;23.40;46.80
46932;DHT22;32670;51.464;11.964;2023-05-20T08:53:28;23.40;46.80
46932;DHT22;32670;51.464;11.964;2023-05-20T08:55:55;23.50;46.90
46932;DHT22;32670;51.464;11.964;2023-05-20T08:58:23;23.50;47.00
46932;DHT22;32670;51.464;11.964;2023-05-20T09:00:49;23.50;47.00
46932;DHT22;32670;51.464;11.964;2023-05-20T09:03:15;23.50;47.10
46932;DHT22;32670;51.464;11.964;2023-05-20T09:05:41;23.50;47.10
46932;DHT22;32670;51.464;11.964;2023-05-20T09:08:07;23.60;47.80
46932;DHT22;32670;51.464;11.964;2023-05-20T09:10:34;23.50;47.20
46932;DHT22;32670;51.464;11.964;2023-05-20T09:13:01;23.50;47.30
46932;DHT22;32670;51.464;11.964;2023-05-20T09:15:27;23.60;47.40
46932;DHT22;32670;51.464;11.964;2023-05-20T09:17:53;23.60;47.40
46932;DHT22;32670;51.464;11.964;2023-05-20T09:20:21;23.60;47.40
46932;DHT22;32670;51.464;11.964;2023-05-20T09:22:50;23.60;47.40
46932;DHT22;32670;51.464;11.964;2023-05-20T09:25:21;23.60;47.50
46932;DHT22;32670;51.464;11.964;2023-05-20T09:27:47;23.60;47.60
46932;DHT22;32670;51.464;11.964;2023-05-20T09:30:12;23.60;47.60
46932;DHT22;32670;51.464;11.964;2023-05-20T09:32:38;23.70;47.70
46932;DHT22;32670;51.464;11.964;2023-05-20T09:35:04;23.70;47.70
46932;DHT22;32670;51.464;11.964;2023-05-20T09:37:33;23.70;47.70
46932;DHT22;32670;51.464;11.964;2023-05-20T09:40:02;23.70;47.70
46932;DHT22;32670;51.464;11.964;2023-05-20T09:42:37;23.70;47.70
46932;DHT22;32670;51.464;11.964;2023-05-20T09:45:04;23.70;47.80
46932;DHT22;32670;51.464;11.964;2023-05-20T09:47:31;23.70;47.80
46932;DHT22;32670;51.464;11.964;2023-05-20T09:49:57;23.70;47.80
46932;DHT22;32670;51.464;11.964;2023-05-20T09:52:22;23.70;47.90
46932;DHT22;32670;51.464;11.964;2023-05-20T09:54:48;23.70;48.00
46932;DHT22;32670;51.464;11.964;2023-05-20T09:57:15;23.70;48.00
46932;DHT22;32670;51.464;11.964;2023-05-20T09:59:41;23.70;48.00
46932;DHT22;32670;51.464;11.964;2023-05-20T10:02:07;23.70;48.10
46932;DHT22;32670;51.464;11.964;2023-05-20T10:04:34;23.70;48.10
46932;DHT22;32670;51.464;11.964;2023-05-20T10:07:34;23.70;48.10
46932;DHT22;32670;51.464;11.964;2023-05-20T10:16:28;23.70;48.30
46932;DHT22;32670;51.464;11.964;2023-05-20T10:21:37;23.80;48.40
46932;DHT22;32670;51.464;11.964;2023-05-20T10:24:09;23.80;48.30
46932;DHT22;32670;51.464;11.964;2023-05-20T10:26:39;23.80;48.30
46932;DHT22;32670;51.464;11.964;2023-05-20T10:29:17;23.80;48.30
46932;DHT22;32670;51.464;11.964;2023-05-20T10:31:47;23.80;48.40
46932;DHT22;32670;51.464;11.964;2023-05-20T10:34:16;23.80;48.30
46932;DHT22;32670;51.464;11.964;2023-05-20T10:37:07;23.80;48.30
46932;DHT22;32670;51.464;11.964;2023-05-20T10:39:33;23.80;48.30
46932;DHT22;32670;51.464;11.964;2023-05-20T10:42:08;23.80;48.20
46932;DHT22;32670;51.464;11.964;2023-05-20T10:44:44;23.80;48.20
46932;DHT22;32670;51.464;11.964;2023-05-20T10:47:10;23.80;48.30
46932;DHT22;32670;51.464;11.964;2023-05-20T10:49:40;23.80;48.20
46932;DHT22;32670;51.464;11.964;2023-05-20T10:52:08;23.80;48.20
46932;DHT22;32670;51.464;11.964;2023-05-20T10:54:36;23.80;48.40
46932;DHT22;32670;51.464;11.964;2023-05-20T10:57:05;23.80;48.40
46932;DHT22;32670;51.464;11.964;2023-05-20T10:59:32;23.80;48.40
46932;DHT22;32670;51.464;11.964;2023-05-20T11:01:59;23.90;48.40
46932;DHT22;32670;51.464;11.964;2023-05-20T11:04:25;23.80;48.40
46932;DHT22;32670;51.464;11.964;2023-05-20T11:06:52;23.90;48.40
46932;DHT22;32670;51.464;11.964;2023-05-20T11:09:19;23.90;48.40
46932;DHT22;32670;51.464;11.964;2023-05-20T11:11:45;23.80;48.40
46932;DHT22;32670;51.464;11.964;2023-05-20T11:14:11;23.80;48.40
46932;DHT22;32670;51.464;11.964;2023-05-20T11:16:42;23.90;48.40
46932;DHT22;32670;51.464;11.964;2023-05-20T11:19:08;23.90;48.40
46932;DHT22;32670;51.464;11.964;2023-05-20T11:21:45;23.90;48.40
46932;DHT22;32670;51.464;11.964;2023-05-20T11:24:14;23.90;48.50
46932;DHT22;32670;51.464;11.964;2023-05-20T11:26:46;23.90;48.40
46932;DHT22;32670;51.464;11.964;2023-05-20T11:29:11;23.90;48.50
46932;DHT22;32670;51.464;11.964;2023-05-20T11:31:37;24.00;48.50
46932;DHT22;32670;51.464;11.964;2023-05-20T11:34:03;23.90;48.40
46932;DHT22;32670;51.464;11.964;2023-05-20T11:36:28;23.90;48.40
46932;DHT22;32670;51.464;11.964;2023-05-20T11:38:58;23.90;48.40
46932;DHT22;32670;51.464;11.964;2023-05-20T11:41:27;23.90;48.40
46932;DHT22;32670;51.464;11.964;2023-05-20T11:43:59;24.00;48.50
46932;DHT22;32670;51.464;11.964;2023-05-20T11:46:25;23.90;48.60
46932;DHT22;32670;51.464;11.964;2023-05-20T11:48:54;24.00;48.60
46932;DHT22;32670;51.464;11.964;2023-05-20T11:51:25;24.00;48.80
46932;DHT22;32670;51.464;11.964;2023-05-20T11:53:51;24.00;48.50
46932;DHT22;32670;51.464;11.964;2023-05-20T11:56:17;24.00;48.50
46932;DHT22;32670;51.464;11.964;2023-05-20T11:58:43;24.00;48.90
46932;DHT22;32670;51.464;11.964;2023-05-20T12:01:09;24.00;48.10
46932;DHT22;32670;51.464;11.964;2023-05-20T12:03:35;24.00;48.00
46932;DHT22;32670;51.464;11.964;2023-05-20T12:06:02;24.00;48.00
46932;DHT22;32670;51.464;11.964;2023-05-20T12:08:27;24.00;47.90
46932;DHT22;32670;51.464;11.964;2023-05-20T12:10:53;23.90;47.70
46932;DHT22;32670;51.464;11.964;2023-05-20T12:13:18;23.90;47.60
46932;DHT22;32670;51.464;11.964;2023-05-20T12:15:44;23.90;47.50
46932;DHT22;32670;51.464;11.964;2023-05-20T12:18:09;23.90;47.40
46932;DHT22;32670;51.464;11.964;2023-05-20T12:20:35;23.90;47.30
46932;DHT22;32670;51.464;11.964;2023-05-20T12:23:01;23.90;47.20
46932;DHT22;32670;51.464;11.964;2023-05-20T12:25:27;23.90;47.20
46932;DHT22;32670;51.464;11.964;2023-05-20T12:27:54;23.90;47.10
46932;DHT22;32670;51.464;11.964;2023-05-20T12:30:21;23.90;47.00
46932;DHT22;32670;51.464;11.964;2023-05-20T12:32:48;23.90;47.40
46932;DHT22;32670;51.464;11.964;2023-05-20T12:35:18;23.90;47.70
46932;DHT22;32670;51.464;11.964;2023-05-20T12:37:43;23.90;47.90
46932;DHT22;32670;51.464;11.964;2023-05-20T12:40:10;23.90;47.90
46932;DHT22;32670;51.464;11.964;2023-05-20T12:42:37;23.90;47.90
46932;DHT22;32670;51.464;11.964;2023-05-20T12:45:03;23.90;48.00
46932;DHT22;32670;51.464;11.964;2023-05-20T12:47:32;23.90;48.00
46932;DHT22;32670;51.464;11.964;2023-05-20T12:49:59;23.90;48.00
46932;DHT22;32670;51.464;11.964;2023-05-20T12:52:25;23.90;48.00
46932;DHT22;32670;51.464;11.964;2023-05-20T12:54:50;23.90;47.90
46932;DHT22;32670;51.464;11.964;2023-05-20T12:57:16;23.90;47.50
46932;DHT22;32670;51.464;11.964;2023-05-20T12:59:43;23.90;47.20
46932;DHT22;32670;51.464;11.964;2023-05-20T13:02:09;23.90;47.10
46932;DHT22;32670;51.464;11.964;2023-05-20T13:04:34;23.90;48.30
46932;DHT22;32670;51.464;11.964;2023-05-20T13:07:00;23.90;48.90
46932;DHT22;32670;51.464;11.964;2023-05-20T13:09:26;24.00;48.20
46932;DHT22;32670;51.464;11.964;2023-05-20T13:11:51;24.00;48.20
46932;DHT22;32670;51.464;11.964;2023-05-20T13:14:17;24.00;48.30
46932;DHT22;32670;51.464;11.964;2023-05-20T13:16:42;24.00;48.20
46932;DHT22;32670;51.464;11.964;2023-05-20T13:19:08;24.00;48.20
46932;DHT22;32670;51.464;11.964;2023-05-20T13:21:33;24.00;48.40
46932;DHT22;32670;51.464;11.964;2023-05-20T13:23:59;24.00;48.30
46932;DHT22;32670;51.464;11.964;2023-05-20T13:26:25;24.00;48.40
46932;DHT22;32670;51.464;11.964;2023-05-20T13:28:51;24.00;48.40
46932;DHT22;32670;51.464;11.964;2023-05-20T13:31:16;24.00;48.40
46932;DHT22;32670;51.464;11.964;2023-05-20T13:33:42;24.00;48.40
46932;DHT22;32670;51.464;11.964;2023-05-20T13:36:07;24.00;48.50
46932;DHT22;32670;51.464;11.964;2023-05-20T13:38:33;24.00;48.40
46932;DHT22;32670;51.464;11.964;2023-05-20T13:40:58;24.10;48.50
46932;DHT22;32670;51.464;11.964;2023-05-20T13:43:25;24.00;48.50
46932;DHT22;32670;51.464;11.964;2023-05-20T13:45:51;24.00;48.50
46932;DHT22;32670;51.464;11.964;2023-05-20T13:48:17;24.00;48.50
46932;DHT22;32670;51.464;11.964;2023-05-20T13:50:42;24.10;48.70
46932;DHT22;32670;51.464;11.964;2023-05-20T13:53:08;24.00;48.60
46932;DHT22;32670;51.464;11.964;2023-05-20T13:55:38;24.00;48.60
46932;DHT22;32670;51.464;11.964;2023-05-20T13:58:04;24.10;48.70
46932;DHT22;32670;51.464;11.964;2023-05-20T14:00:36;24.10;48.70
46932;DHT22;32670;51.464;11.964;2023-05-20T14:03:02;24.10;48.70
46932;DHT22;32670;51.464;11.964;2023-05-20T14:05:30;24.10;48.70
46932;DHT22;32670;51.464;11.964;2023-05-20T14:07:55;24.10;48.70
46932;DHT22;32670;51.464;11.964;2023-05-20T14:10:21;24.10;48.80
46932;DHT22;32670;51.464;11.964;2023-05-20T14:12:46;24.10;48.70
46932;DHT22;32670;51.464;11.964;2023-05-20T14:15:12;24.10;48.60
46932;DHT22;32670;51.464;11.964;2023-05-20T14:17:38;24.10;48.50
46932;DHT22;32670;51.464;11.964;2023-05-20T14:20:04;24.10;48.50
46932;DHT22;32670;51.464;11.964;2023-05-20T14:22:30;24.10;48.50
46932;DHT22;32670;51.464;11.964;2023-05-20T14:24:57;24.10;48.50
46932;DHT22;32670;51.464;11.964;2023-05-20T14:27:22;24.10;48.60
46932;DHT22;32670;51.464;11.964;2023-05-20T14:29:48;24.10;48.60
46932;DHT22;32670;51.464;11.964;2023-05-20T14:32:13;24.20;48.90
46932;DHT22;32670;51.464;11.964;2023-05-20T14:34:39;24.10;48.90
46932;DHT22;32670;51.464;11.964;2023-05-20T14:37:04;24.20;48.90
46932;DHT22;32670;51.464;11.964;2023-05-20T14:39:34;24.20;49.20
46932;DHT22;32670;51.464;11.964;2023-05-20T14:42:00;24.20;49.00
46932;DHT22;32670;51.464;11.964;2023-05-20T14:44:25;24.20;49.10
46932;DHT22;32670;51.464;11.964;2023-05-20T14:46:51;24.20;49.10
46932;DHT22;32670;51.464;11.964;2023-05-20T14:49:16;24.20;49.30
46932;DHT22;32670;51.464;11.964;2023-05-20T14:51:42;24.20;49.40
46932;DHT22;32670;51.464;11.964;2023-05-20T14:54:07;24.20;49.70
46932;DHT22;32670;51.464;11.964;2023-05-20T14:56:33;24.20;49.70
46932;DHT22;32670;51.464;11.964;2023-05-20T14:58:59;24.30;49.70
46932;DHT22;32670;51.464;11.964;2023-05-20T15:01:24;24.30;49.70
46932;DHT22;32670;51.464;11.964;2023-05-20T15:03:49;24.30;49.60
46932;DHT22;32670;51.464;11.964;2023-05-20T15:06:15;24.30;49.60
46932;DHT22;32670;51.464;11.964;2023-05-20T15:08:40;24.30;49.50
46932;DHT22;32670;51.464;11.964;2023-05-20T15:11:06;24.30;50.00
46932;DHT22;32670;51.464;11.964;2023-05-20T15:13:31;24.30;49.30
46932;DHT22;32670;51.464;11.964;2023-05-20T15:15:57;24.30;49.10
46932;DHT22;32670;51.464;11.964;2023-05-20T15:18:23;24.30;48.90